sensor_id;sensor_type;location;lat;lon;timestamp;pressure;altitude;pressure_sealevel;temperature;humidity
13734;BME280;43298;52.560;13.508;2024-01-16T00:01:46;98351.66;;;-0.01;100.00
13734;BME280;43298;52.560;13.508;2024-01-16T00:04:12;98361.06;;;-0.03;100.00
13734;BME280;43298;52.560;13.508;2024-01-16T00:06:41;98357.75;;;-0.05;100.00
13734;BME280;43298;52.560;13.508;2024-01-16T00:09:08;98356.38;;;-0.14;100.00
13734;BME280;43298;52.560;13.508;2024-01-16T00:11:44;98359.28;;;-0.23;100.00
13734;BME280;43298;52.560;13.508;2024-01-16T00:14:10;98360.28;;;-0.27;100.00
13734;BME280;43298;52.560;13.508;2024-01-16T00:16:46;98352.75;;;-0.30;100.00
13734;BME280;43298;52.560;13.508;2024-01-16T00:19:12;98350.31;;;-0.33;100.00
13734;BME280;43298;52.560;13.508;2024-01-16T00:21:43;98346.94;;;-0.33;100.00
13734;BME280;43298;52.560;13.508;2024-01-16T00:24:12;98343.66;;;-0.35;100.00
13734;BME280;43298;52.560;13.508;2024-01-16T00:26:37;98333.50;;;-0.35;100.00
13734;BME280;43298;52.560;13.508;2024-01-16T00:29:03;98346.94;;;-0.33;100.00
13734;BME280;43298;52.560;13.508;2024-01-16T00:31:29;98346.16;;;-0.34;100.00
13734;BME280;43298;52.560;13.508;2024-01-16T00:33:55;98345.31;;;-0.34;100.00
13734;BME280;43298;52.560;13.508;2024-01-16T00:36:21;98342.94;;;-0.39;100.00
13734;BME280;43298;52.560;13.508;2024-01-16T00:38:47;98341.38;;;-0.43;100.00
13734;BME280;43298;52.560;13.508;2024-01-16T00:41:13;98335.72;;;-0.49;100.00
13734;BME280;43298;52.560;13.508;2024-01-16T00:43:43;98330.69;;;-0.51;100.00
13734;BME280;43298;52.560;13.508;2024-01-16T00:46:09;98334.19;;;-0.53;100.00
13734;BME280;43298;52.560;13.508;2024-01-16T00:48:35;98320.00;;;-0.59;100.00
13734;BME280;43298;52.560;13.508;2024-01-16T00:51:01;98300.00;;;-0.68;100.00
13734;BME280;43298;52.560;13.508;2024-01-16T00:53:27;98296.00;;;-0.73;100.00
13734;BME280;43298;52.560;13.508;2024-01-16T00:55:53;98302.94;;;-0.78;100.00
13734;BME280;43298;52.560;13.508;2024-01-16T00:58:23;98298.97;;;-0.85;100.00
13734;BME280;43298;52.560;13.508;2024-01-16T01:00:49;98291.56;;;-0.91;100.00
13734;BME280;43298;52.560;13.508;2024-01-16T01:03:15;98295.19;;;-0.98;100.00
13734;BME280;43298;52.560;13.508;2024-01-16T01:05:41;98294.78;;;-1.11;100.00
13734;BME280;43298;52.560;13.508;2024-01-16T01:08:07;98286.44;;;-1.14;100.00
13734;BME280;43298;52.560;13.508;2024-01-16T01:10:33;98279.84;;;-1.18;100.00
13734;BME280;43298;52.560;13.508;2024-01-16T01:12:59;98274.25;;;-1.28;100.00
13734;BME280;43298;52.560;13.508;2024-01-16T01:15:25;98268.53;;;-1.33;100.00
13734;BME280;43298;52.560;13.508;2024-01-16T01:17:51;98255.06;;;-1.35;100.00
13734;BME280;43298;52.560;13.508;2024-01-16T01:20:18;98256.78;;;-1.35;100.00
13734;BME280;43298;52.560;13.508;2024-01-16T01:22:45;98261.72;;;-1.32;100.00
13734;BME280;43298;52.560;13.508;2024-01-16T01:25:14;98260.09;;;-1.33;100.00
13734;BME280;43298;52.560;13.508;2024-01-16T01:27:40;98255.91;;;-1.34;100.00
13734;BME280;43298;52.560;13.508;2024-01-16T01:30:07;98254.97;;;-1.32;100.00
13734;BME280;43298;52.560;13.508;2024-01-16T01:32:37;98248.09;;;-1.28;100.00
13734;BME280;43298;52.560;13.508;2024-01-16T01:35:04;98250.75;;;-1.31;100.00
13734;BME280;43298;52.560;13.508;2024-01-16T01:37:30;98255.91;;;-1.34;100.00
13734;BME280;43298;52.560;13.508;2024-01-16T01:39:56;98262.81;;;-1.39;100.00
13734;BME280;43298;52.560;13.508;2024-01-16T01:42:23;98263.75;;;-1.42;100.00
13734;BME280;43298;52.560;13.508;2024-01-16T01:44:48;98267.88;;;-1.39;100.00
13734;BME280;43298;52.560;13.508;2024-01-16T01:47:14;98253.56;;;-1.40;100.00
13734;BME280;43298;52.560;13.508;2024-01-16T01:49:41;98262.06;;;-1.41;100.00
13734;BME280;43298;52.560;13.508;2024-01-16T01:52:08;98267.09;;;-1.40;100.00
13734;BME280;43298;52.560;13.508;2024-01-16T01:54:36;98267.09;;;-1.40;100.00
13734;BME280;43298;52.560;13.508;2024-01-16T01:57:02;98266.16;;;-1.37;100.00
13734;BME280;43298;52.560;13.508;2024-01-16T01:59:30;98267.69;;;-1.33;100.00
13734;BME280;43298;52.560;13.508;2024-01-16T02:01:57;98267.03;;;-1.38;100.00
13734;BME280;43298;52.560;13.508;2024-01-16T02:04:25;98269.56;;;-1.38;100.00
13734;BME280;43298;52.560;13.508;2024-01-16T02:06:51;98275.44;;;-1.38;100.00
13734;BME280;43298;52.560;13.508;2024-01-16T02:09:18;98277.88;;;-1.35;100.00
13734;BME280;43298;52.560;13.508;2024-01-16T02:11:44;98282.06;;;-1.34;100.00
13734;BME280;43298;52.560;13.508;2024-01-16T02:14:10;98291.47;;;-1.37;100.00
13734;BME280;43298;52.560;13.508;2024-01-16T02:16:42;98297.63;;;-1.44;100.00
13734;BME280;43298;52.560;13.508;2024-01-16T02:19:10;98295.38;;;-1.53;100.00
13734;BME280;43298;52.560;13.508;2024-01-16T02:21:48;98295.50;;;-1.56;100.00
13734;BME280;43298;52.560;13.508;2024-01-16T02:24:15;98308.38;;;-1.62;100.00
13734;BME280;43298;52.560;13.508;2024-01-16T02:26:42;98320.53;;;-1.73;100.00
13734;BME280;43298;52.560;13.508;2024-01-16T02:29:08;98326.41;;;-1.73;100.00
13734;BME280;43298;52.560;13.508;2024-01-16T02:31:34;98333.22;;;-1.73;100.00
13734;BME280;43298;52.560;13.508;2024-01-16T02:34:01;98336.72;;;-1.77;100.00
13734;BME280;43298;52.560;13.508;2024-01-16T02:36:27;98340.94;;;-1.78;100.00
13734;BME280;43298;52.560;13.508;2024-01-16T02:38:54;98348.41;;;-1.73;100.00
13734;BME280;43298;52.560;13.508;2024-01-16T02:41:20;98363.69;;;-1.76;100.00
13734;BME280;43298;52.560;13.508;2024-01-16T02:43:46;98367.28;;;-1.83;100.00
13734;BME280;43298;52.560;13.508;2024-01-16T02:46:15;98372.94;;;-2.03;100.00
13734;BME280;43298;52.560;13.508;2024-01-16T02:48:41;98375.44;;;-2.30;100.00
13734;BME280;43298;52.560;13.508;2024-01-16T02:51:10;98393.13;;;-2.59;100.00
13734;BME280;43298;52.560;13.508;2024-01-16T02:53:36;98403.00;;;-2.82;100.00
13734;BME280;43298;52.560;13.508;2024-01-16T02:56:02;98409.16;;;-2.92;100.00
13734;BME280;43298;52.560;13.508;2024-01-16T02:58:29;98424.06;;;-3.16;100.00
13734;BME280;43298;52.560;13.508;2024-01-16T03:00:56;98435.81;;;-3.13;100.00
13734;BME280;43298;52.560;13.508;2024-01-16T03:03:23;98436.66;;;-3.13;100.00
13734;BME280;43298;52.560;13.508;2024-01-16T03:05:49;98451.94;;;-3.19;100.00
13734;BME280;43298;52.560;13.508;2024-01-16T03:08:15;98446.25;;;-3.27;100.00
13734;BME280;43298;52.560;13.508;2024-01-16T03:10:41;98458.44;;;-3.44;100.00
13734;BME280;43298;52.560;13.508;2024-01-16T03:13:09;98473.13;;;-3.61;100.00
13734;BME280;43298;52.560;13.508;2024-01-16T03:15:34;98478.44;;;-3.73;100.00
13734;BME280;43298;52.560;13.508;2024-01-16T03:18:00;98499.53;;;-3.75;100.00
13734;BME280;43298;52.560;13.508;2024-01-16T03:20:29;98500.81;;;-3.56;100.00
13734;BME280;43298;52.560;13.508;2024-01-16T03:22:55;98504.81;;;-3.48;100.00
13734;BME280;43298;52.560;13.508;2024-01-16T03:25:21;98500.28;;;-3.32;100.00
13734;BME280;43298;52.560;13.508;2024-01-16T03:27:47;98495.91;;;-3.26;100.00
13734;BME280;43298;52.560;13.508;2024-01-16T03:30:13;98492.38;;;-3.19;100.00
13734;BME280;43298;52.560;13.508;2024-01-16T03:32:39;98498.09;;;-3.12;100.00
13734;BME280;43298;52.560;13.508;2024-01-16T03:35:06;98482.34;;;-2.88;100.00
13734;BME280;43298;52.560;13.508;2024-01-16T03:37:33;98491.03;;;-2.64;100.00
13734;BME280;43298;52.560;13.508;2024-01-16T03:39:59;98486.47;;;-2.50;100.00
13734;BME280;43298;52.560;13.508;2024-01-16T03:42:25;98499.00;;;-2.46;100.00
13734;BME280;43298;52.560;13.508;2024-01-16T03:44:50;98499.63;;;-2.38;100.00
13734;BME280;43298;52.560;13.508;2024-01-16T03:47:17;98491.16;;;-2.37;100.00
13734;BME280;43298;52.560;13.508;2024-01-16T03:49:43;98500.13;;;-2.25;100.00
13734;BME280;43298;52.560;13.508;2024-01-16T03:52:09;98509.28;;;-2.21;100.00
13734;BME280;43298;52.560;13.508;2024-01-16T03:54:35;98518.47;;;-2.17;100.00
13734;BME280;43298;52.560;13.508;2024-01-16T03:57:00;98521.69;;;-2.11;100.00
13734;BME280;43298;52.560;13.508;2024-01-16T03:59:26;98514.88;;;-2.10;100.00
13734;BME280;43298;52.560;13.508;2024-01-16T04:01:52;98528.28;;;-2.05;100.00
13734;BME280;43298;52.560;13.508;2024-01-16T04:04:18;98533.34;;;-2.05;100.00
13734;BME280;43298;52.560;13.508;2024-01-16T04:06:45;98529.03;;;-2.03;100.00
13734;BME280;43298;52.560;13.508;2024-01-16T04:09:11;98532.38;;;-2.01;100.00
13734;BME280;43298;52.560;13.508;2024-01-16T04:11:37;98525.44;;;-1.95;100.00
13734;BME280;43298;52.560;13.508;2024-01-16T04:14:04;98526.16;;;-1.90;100.00
13734;BME280;43298;52.560;13.508;2024-01-16T04:16:29;98517.56;;;-1.84;100.00
13734;BME280;43298;52.560;13.508;2024-01-16T04:18:55;98517.56;;;-1.84;100.00
13734;BME280;43298;52.560;13.508;2024-01-16T04:21:21;98503.22;;;-1.85;100.00
13734;BME280;43298;52.560;13.508;2024-01-16T04:23:47;98512.59;;;-1.87;100.00
13734;BME280;43298;52.560;13.508;2024-01-16T04:26:13;98513.47;;;-1.88;100.00
13734;BME280;43298;52.560;13.508;2024-01-16T04:28:39;98512.69;;;-1.92;100.00
13734;BME280;43298;52.560;13.508;2024-01-16T04:31:05;98524.47;;;-1.91;100.00
13734;BME280;43298;52.560;13.508;2024-01-16T04:33:31;98530.25;;;-1.86;100.00
13734;BME280;43298;52.560;13.508;2024-01-16T04:35:57;98522.81;;;-1.92;100.00
13734;BME280;43298;52.560;13.508;2024-01-16T04:38:23;98536.25;;;-1.88;100.00
13734;BME280;43298;52.560;13.508;2024-01-16T04:40:49;98527.66;;;-1.83;100.00
13734;BME280;43298;52.560;13.508;2024-01-16T04:43:15;98540.28;;;-1.81;100.00
13734;BME280;43298;52.560;13.508;2024-01-16T04:45:41;98539.31;;;-1.77;100.00
13734;BME280;43298;52.560;13.508;2024-01-16T04:48:07;98536.78;;;-1.77;100.00
13734;BME280;43298;52.560;13.508;2024-01-16T04:50:36;98542.81;;;-1.81;100.00
13734;BME280;43298;52.560;13.508;2024-01-16T04:53:02;98534.28;;;-1.79;100.00
13734;BME280;43298;52.560;13.508;2024-01-16T04:55:29;98530.31;;;-1.87;100.00
13734;BME280;43298;52.560;13.508;2024-01-16T04:57:56;98529.44;;;-1.86;100.00
13734;BME280;43298;52.560;13.508;2024-01-16T05:00:23;98524.31;;;-1.85;100.00
13734;BME280;43298;52.560;13.508;2024-01-16T05:02:49;98526.78;;;-1.82;100.00
13734;BME280;43298;52.560;13.508;2024-01-16T05:05:15;98521.88;;;-1.88;100.00
13734;BME280;43298;52.560;13.508;2024-01-16T05:07:41;98520.47;;;-1.98;100.00
13734;BME280;43298;52.560;13.508;2024-01-16T05:10:10;98531.56;;;-2.03;100.00
13734;BME280;43298;52.560;13.508;2024-01-16T05:12:40;98530.06;;;-2.10;100.00
13734;BME280;43298;52.560;13.508;2024-01-16T05:15:07;98522.41;;;-2.07;100.00
13734;BME280;43298;52.560;13.508;2024-01-16T05:17:33;98533.56;;;-2.14;100.00
13734;BME280;43298;52.560;13.508;2024-01-16T05:19:59;98542.03;;;-2.15;100.00
13734;BME280;43298;52.560;13.508;2024-01-16T05:22:25;98545.53;;;-2.19;100.00
13734;BME280;43298;52.560;13.508;2024-01-16T05:24:52;98546.16;;;-2.11;100.00
13734;BME280;43298;52.560;13.508;2024-01-16T05:27:18;98546.22;;;-2.14;100.00
13734;BME280;43298;52.560;13.508;2024-01-16T05:29:43;98542.75;;;-2.10;100.00
13734;BME280;43298;52.560;13.508;2024-01-16T05:32:09;98547.59;;;-2.03;100.00
13734;BME280;43298;52.560;13.508;2024-01-16T05:34:35;98543.38;;;-2.02;100.00
13734;BME280;43298;52.560;13.508;2024-01-16T05:37:02;98548.53;;;-2.05;100.00
13734;BME280;43298;52.560;13.508;2024-01-16T05:39:28;98551.94;;;-2.06;100.00
13734;BME280;43298;52.560;13.508;2024-01-16T05:41:54;98554.31;;;-2.02;100.00
13734;BME280;43298;52.560;13.508;2024-01-16T05:44:19;98555.06;;;-1.97;100.00
13734;BME280;43298;52.560;13.508;2024-01-16T05:46:45;98560.84;;;-1.93;100.00
13734;BME280;43298;52.560;13.508;2024-01-16T05:49:11;98574.38;;;-1.94;100.00
13734;BME280;43298;52.560;13.508;2024-01-16T05:51:37;98575.25;;;-1.95;100.00
13734;BME280;43298;52.560;13.508;2024-01-16T05:54:03;98577.09;;;-2.02;100.00
13734;BME280;43298;52.560;13.508;2024-01-16T05:56:31;98587.38;;;-2.06;100.00
13734;BME280;43298;52.560;13.508;2024-01-16T05:58:57;98584.19;;;-2.14;100.00
13734;BME280;43298;52.560;13.508;2024-01-16T06:01:23;98586.06;;;-2.21;100.00
13734;BME280;43298;52.560;13.508;2024-01-16T06:03:49;98592.97;;;-2.27;100.00
13734;BME280;43298;52.560;13.508;2024-01-16T06:06:15;98589.59;;;-2.28;100.00
13734;BME280;43298;52.560;13.508;2024-01-16T06:08:41;98607.66;;;-2.41;100.00
13734;BME280;43298;52.560;13.508;2024-01-16T06:11:07;98612.91;;;-2.49;100.00
13734;BME280;43298;52.560;13.508;2024-01-16T06:13:33;98614.75;;;-2.55;100.00
13734;BME280;43298;52.560;13.508;2024-01-16T06:15:59;98618.41;;;-2.68;100.00
13734;BME280;43298;52.560;13.508;2024-01-16T06:18:25;98626.94;;;-2.72;100.00
13734;BME280;43298;52.560;13.508;2024-01-16T06:20:50;98616.72;;;-2.68;100.00
13734;BME280;43298;52.560;13.508;2024-01-16T06:23:16;98619.00;;;-2.57;100.00
13734;BME280;43298;52.560;13.508;2024-01-16T06:25:42;98623.78;;;-2.45;100.00
13734;BME280;43298;52.560;13.508;2024-01-16T06:28:08;98624.47;;;-2.39;100.00
13734;BME280;43298;52.560;13.508;2024-01-16T06:30:34;98624.94;;;-2.23;100.00
13734;BME280;43298;52.560;13.508;2024-01-16T06:33:00;98616.97;;;-2.10;100.00
13734;BME280;43298;52.560;13.508;2024-01-16T06:35:25;98627.78;;;-2.03;100.00
13734;BME280;43298;52.560;13.508;2024-01-16T06:37:51;98627.59;;;-1.96;100.00
13734;BME280;43298;52.560;13.508;2024-01-16T06:40:17;98630.00;;;-1.91;100.00
13734;BME280;43298;52.560;13.508;2024-01-16T06:42:43;98628.19;;;-1.86;100.00
13734;BME280;43298;52.560;13.508;2024-01-16T06:45:09;98629.72;;;-1.81;100.00
13734;BME280;43298;52.560;13.508;2024-01-16T06:47:35;98630.53;;;-1.79;100.00
13734;BME280;43298;52.560;13.508;2024-01-16T06:50:01;98638.00;;;-1.74;100.00
13734;BME280;43298;52.560;13.508;2024-01-16T06:52:26;98646.34;;;-1.71;100.00
13734;BME280;43298;52.560;13.508;2024-01-16T06:54:52;98642.97;;;-1.71;100.00
13734;BME280;43298;52.560;13.508;2024-01-16T06:57:18;98646.28;;;-1.68;100.00
13734;BME280;43298;52.560;13.508;2024-01-16T06:59:44;98642.81;;;-1.65;100.00
13734;BME280;43298;52.560;13.508;2024-01-16T07:02:10;98652.09;;;-1.66;100.00
13734;BME280;43298;52.560;13.508;2024-01-16T07:04:36;98647.13;;;-1.67;100.00
13734;BME280;43298;52.560;13.508;2024-01-16T07:07:02;98652.97;;;-1.67;100.00
13734;BME280;43298;52.560;13.508;2024-01-16T07:09:29;98662.13;;;-1.61;100.00
13734;BME280;43298;52.560;13.508;2024-01-16T07:11:55;98667.19;;;-1.61;100.00
13734;BME280;43298;52.560;13.508;2024-01-16T07:14:20;98667.97;;;-1.58;100.00
13734;BME280;43298;52.560;13.508;2024-01-16T07:16:46;98666.22;;;-1.57;100.00
13734;BME280;43298;52.560;13.508;2024-01-16T07:19:12;98667.03;;;-1.55;100.00
13734;BME280;43298;52.560;13.508;2024-01-16T07:21:38;98673.84;;;-1.57;100.00
13734;BME280;43298;52.560;13.508;2024-01-16T07:24:04;98681.31;;;-1.53;100.00
13734;BME280;43298;52.560;13.508;2024-01-16T07:26:30;98674.56;;;-1.52;100.00
13734;BME280;43298;52.560;13.508;2024-01-16T07:28:56;98681.22;;;-1.48;100.00
13734;BME280;43298;52.560;13.508;2024-01-16T07:31:23;98685.34;;;-1.46;100.00
13734;BME280;43298;52.560;13.508;2024-01-16T07:33:49;98676.13;;;-1.48;100.00
13734;BME280;43298;52.560;13.508;2024-01-16T07:36:15;98687.13;;;-1.48;100.00
13734;BME280;43298;52.560;13.508;2024-01-16T07:38:41;98690.31;;;-1.41;100.00
13734;BME280;43298;52.560;13.508;2024-01-16T07:41:06;98685.81;;;-1.32;100.00
13734;BME280;43298;52.560;13.508;2024-01-16T07:43:33;98689.72;;;-1.20;100.00
13734;BME280;43298;52.560;13.508;2024-01-16T07:45:58;98688.69;;;-1.13;100.00
13734;BME280;43298;52.560;13.508;2024-01-16T07:48:24;98684.06;;;-0.99;100.00
13734;BME280;43298;52.560;13.508;2024-01-16T07:50:51;98676.06;;;-0.86;100.00
13734;BME280;43298;52.560;13.508;2024-01-16T07:53:17;98679.06;;;-0.73;100.00
13734;BME280;43298;52.560;13.508;2024-01-16T07:55:43;98675.47;;;-0.66;100.00
13734;BME280;43298;52.560;13.508;2024-01-16T07:58:12;98674.53;;;-0.64;100.00
13734;BME280;43298;52.560;13.508;2024-01-16T08:00:38;98677.91;;;-0.63;100.00
13734;BME280;43298;52.560;13.508;2024-01-16T08:03:08;98682.91;;;-0.60;100.00
13734;BME280;43298;52.560;13.508;2024-01-16T08:05:37;98696.44;;;-0.61;100.00
13734;BME280;43298;52.560;13.508;2024-01-16T08:08:04;98697.38;;;-0.64;100.00
13734;BME280;43298;52.560;13.508;2024-01-16T08:10:30;98705.03;;;-0.65;100.00
13734;BME280;43298;52.560;13.508;2024-01-16T08:12:56;98703.38;;;-0.66;100.00
13734;BME280;43298;52.560;13.508;2024-01-16T08:15:22;98711.78;;;-0.64;100.00
13734;BME280;43298;52.560;13.508;2024-01-16T08:17:48;98712.38;;;-0.56;100.00
13734;BME280;43298;52.560;13.508;2024-01-16T08:20:14;98713.06;;;-0.51;100.00
13734;BME280;43298;52.560;13.508;2024-01-16T08:22:39;98710.25;;;-0.42;100.00
13734;BME280;43298;52.560;13.508;2024-01-16T08:25:06;98707.13;;;-0.23;100.00
13734;BME280;43298;52.560;13.508;2024-01-16T08:27:32;98713.50;;;-0.11;100.00
13734;BME280;43298;52.560;13.508;2024-01-16T08:29:58;98709.88;;;-0.04;100.00
13734;BME280;43298;52.560;13.508;2024-01-16T08:32:24;98718.78;;;-0.17;100.00
13734;BME280;43298;52.560;13.508;2024-01-16T08:34:50;98729.91;;;-0.21;100.00
13734;BME280;43298;52.560;13.508;2024-01-16T08:37:15;98727.38;;;-0.21;100.00
13734;BME280;43298;52.560;13.508;2024-01-16T08:39:41;98733.09;;;-0.15;100.00
13734;BME280;43298;52.560;13.508;2024-01-16T08:42:07;98726.91;;;-0.06;100.00
13734;BME280;43298;52.560;13.508;2024-01-16T08:44:40;98723.38;;;-0.02;100.00
13734;BME280;43298;52.560;13.508;2024-01-16T08:47:06;98717.72;;;0.16;100.00
13734;BME280;43298;52.560;13.508;2024-01-16T08:49:32;98730.84;;;0.29;100.00
13734;BME280;43298;52.560;13.508;2024-01-16T08:51:59;98717.94;;;0.35;100.00
13734;BME280;43298;52.560;13.508;2024-01-16T08:54:25;98724.84;;;0.56;100.00
13734;BME280;43298;52.560;13.508;2024-01-16T08:56:52;98717.50;;;0.71;100.00
13734;BME280;43298;52.560;13.508;2024-01-16T08:59:18;98724.47;;;0.66;100.00
13734;BME280;43298;52.560;13.508;2024-01-16T09:01:44;98721.72;;;0.48;100.00
13734;BME280;43298;52.560;13.508;2024-01-16T09:04:10;98719.13;;;0.49;100.00
13734;BME280;43298;52.560;13.508;2024-01-16T09:06:35;98707.97;;;0.53;100.00
13734;BME280;43298;52.560;13.508;2024-01-16T09:09:01;98710.78;;;0.46;100.00
13734;BME280;43298;52.560;13.508;2024-01-16T09:11:30;98697.25;;;0.45;100.00
13734;BME280;43298;52.560;13.508;2024-01-16T09:13:55;98693.41;;;0.58;100.00
13734;BME280;43298;52.560;13.508;2024-01-16T09:16:21;98684.00;;;0.60;100.00
13734;BME280;43298;52.560;13.508;2024-01-16T09:18:47;98681.59;;;0.57;100.00
13734;BME280;43298;52.560;13.508;2024-01-16T09:21:14;98671.56;;;0.53;100.00
13734;BME280;43298;52.560;13.508;2024-01-16T09:23:40;98659.72;;;0.52;100.00
13734;BME280;43298;52.560;13.508;2024-01-16T09:26:05;98650.19;;;0.58;100.00
13734;BME280;43298;52.560;13.508;2024-01-16T09:28:31;98646.19;;;0.74;100.00
13734;BME280;43298;52.560;13.508;2024-01-16T09:30:57;98641.13;;;0.74;100.00
13734;BME280;43298;52.560;13.508;2024-01-16T09:33:23;98630.56;;;0.85;100.00
13734;BME280;43298;52.560;13.508;2024-01-16T09:35:51;98625.53;;;0.83;100.00
13734;BME280;43298;52.560;13.508;2024-01-16T09:38:17;98630.94;;;0.74;100.00
13734;BME280;43298;52.560;13.508;2024-01-16T09:40:43;98626.19;;;0.65;100.00
13734;BME280;43298;52.560;13.508;2024-01-16T09:43:09;98633.28;;;0.57;100.00
13734;BME280;43298;52.560;13.508;2024-01-16T09:45:38;98629.34;;;0.49;100.00
13734;BME280;43298;52.560;13.508;2024-01-16T09:48:05;98621.31;;;0.59;100.00
13734;BME280;43298;52.560;13.508;2024-01-16T09:50:32;98621.13;;;0.65;100.00
13734;BME280;43298;52.560;13.508;2024-01-16T09:52:57;98617.63;;;0.68;100.00
13734;BME280;43298;52.560;13.508;2024-01-16T09:55:23;98619.16;;;0.72;100.00
13734;BME280;43298;52.560;13.508;2024-01-16T09:57:52;98623.25;;;0.76;100.00
13734;BME280;43298;52.560;13.508;2024-01-16T10:00:21;98615.56;;;0.77;100.00
13734;BME280;43298;52.560;13.508;2024-01-16T10:02:50;98615.31;;;0.85;100.00
13734;BME280;43298;52.560;13.508;2024-01-16T10:05:16;98609.09;;;0.92;100.00
13734;BME280;43298;52.560;13.508;2024-01-16T10:07:42;98606.88;;;1.06;100.00
13734;BME280;43298;52.560;13.508;2024-01-16T10:10:11;98604.94;;;1.34;100.00
13734;BME280;43298;52.560;13.508;2024-01-16T10:12:38;98594.84;;;1.52;100.00
13734;BME280;43298;52.560;13.508;2024-01-16T10:15:08;98590.41;;;1.57;100.00
13734;BME280;43298;52.560;13.508;2024-01-16T10:17:41;98600.59;;;1.57;100.00
13734;BME280;43298;52.560;13.508;2024-01-16T10:20:11;98596.25;;;1.59;100.00
13734;BME280;43298;52.560;13.508;2024-01-16T10:22:52;98597.50;;;1.71;100.00
13734;BME280;43298;52.560;13.508;2024-01-16T10:25:19;98594.00;;;1.93;100.00
13734;BME280;43298;52.560;13.508;2024-01-16T10:27:47;98591.97;;;2.01;100.00
13734;BME280;43298;52.560;13.508;2024-01-16T10:30:13;98591.06;;;2.02;100.00
13734;BME280;43298;52.560;13.508;2024-01-16T10:32:41;98596.63;;;1.92;100.00
13734;BME280;43298;52.560;13.508;2024-01-16T10:35:13;98594.00;;;2.13;100.00
13734;BME280;43298;52.560;13.508;2024-01-16T10:37:49;98602.88;;;2.05;100.00
13734;BME280;43298;52.560;13.508;2024-01-16T10:40:21;98608.09;;;2.02;100.00
13734;BME280;43298;52.560;13.508;2024-01-16T10:43:01;98595.53;;;2.17;100.00
13734;BME280;43298;52.560;13.508;2024-01-16T10:45:27;98607.63;;;2.32;100.00
13734;BME280;43298;52.560;13.508;2024-01-16T10:48:08;98619.88;;;2.24;100.00
13734;BME280;43298;52.560;13.508;2024-01-16T10:50:37;98629.06;;;2.08;100.00
13734;BME280;43298;52.560;13.508;2024-01-16T10:53:07;98642.81;;;2.04;100.00
13734;BME280;43298;52.560;13.508;2024-01-16T10:56:00;98647.19;;;2.01;100.00
13734;BME280;43298;52.560;13.508;2024-01-16T10:58:27;98658.28;;;2.00;100.00
13734;BME280;43298;52.560;13.508;2024-01-16T11:01:01;98639.69;;;2.18;100.00
13734;BME280;43298;52.560;13.508;2024-01-16T11:03:47;98637.94;;;2.38;100.00
13734;BME280;43298;52.560;13.508;2024-01-16T11:06:18;98657.88;;;2.10;100.00
13734;BME280;43298;52.560;13.508;2024-01-16T11:08:48;98671.16;;;1.97;100.00
13734;BME280;43298;52.560;13.508;2024-01-16T11:11:15;98663.56;;;1.95;100.00
13734;BME280;43298;52.560;13.508;2024-01-16T11:13:42;98676.44;;;1.92;100.00
13734;BME280;43298;52.560;13.508;2024-01-16T11:16:11;98678.44;;;1.84;100.00
13734;BME280;43298;52.560;13.508;2024-01-16T11:18:37;98683.25;;;1.70;100.00
13734;BME280;43298;52.560;13.508;2024-01-16T11:21:10;98687.59;;;1.68;100.00
13734;BME280;43298;52.560;13.508;2024-01-16T11:23:37;98684.25;;;1.66;100.00
13734;BME280;43298;52.560;13.508;2024-01-16T11:26:32;98687.19;;;1.57;100.00
13734;BME280;43298;52.560;13.508;2024-01-16T11:29:00;98689.31;;;1.46;100.00
13734;BME280;43298;52.560;13.508;2024-01-16T11:31:34;98686.03;;;1.43;100.00
13734;BME280;43298;52.560;13.508;2024-01-16T11:34:02;98690.53;;;1.36;100.00
13734;BME280;43298;52.560;13.508;2024-01-16T11:36:48;98683.97;;;1.31;100.00
13734;BME280;43298;52.560;13.508;2024-01-16T11:39:28;98680.41;;;1.35;100.00
13734;BME280;43298;52.560;13.508;2024-01-16T11:41:59;98666.31;;;1.48;100.00
13734;BME280;43298;52.560;13.508;2024-01-16T11:44:49;98660.88;;;1.57;100.00
13734;BME280;43298;52.560;13.508;2024-01-16T11:47:21;98654.72;;;1.62;100.00
13734;BME280;43298;52.560;13.508;2024-01-16T11:49:49;98654.47;;;1.68;100.00
13734;BME280;43298;52.560;13.508;2024-01-16T11:52:42;98654.38;;;1.71;100.00
13734;BME280;43298;52.560;13.508;2024-01-16T12:01:19;98654.47;;;1.47;100.00
13734;BME280;43298;52.560;13.508;2024-01-16T12:03:45;98641.91;;;1.42;100.00
13734;BME280;43298;52.560;13.508;2024-01-16T12:06:16;98645.47;;;1.38;100.00
13734;BME280;43298;52.560;13.508;2024-01-16T12:08:42;98647.72;;;1.24;100.00
13734;BME280;43298;52.560;13.508;2024-01-16T12:11:07;98641.91;;;1.21;100.00
13734;BME280;43298;52.560;13.508;2024-01-16T12:13:33;98636.94;;;1.18;100.00
13734;BME280;43298;52.560;13.508;2024-01-16T12:16:03;98637.78;;;1.18;100.00
13734;BME280;43298;52.560;13.508;2024-01-16T12:18:29;98629.25;;;1.19;100.00
13734;BME280;43298;52.560;13.508;2024-01-16T12:20:55;98612.81;;;1.28;100.00
13734;BME280;43298;52.560;13.508;2024-01-16T12:23:21;98609.72;;;1.41;100.00
13734;BME280;43298;52.560;13.508;2024-01-16T12:25:52;98594.78;;;1.54;100.00
13734;BME280;43298;52.560;13.508;2024-01-16T12:28:21;98582.22;;;1.49;100.00
13734;BME280;43298;52.560;13.508;2024-01-16T12:30:51;98572.59;;;1.57;100.00
13734;BME280;43298;52.560;13.508;2024-01-16T12:33:22;98558.84;;;1.61;100.00
13734;BME280;43298;52.560;13.508;2024-01-16T12:35:48;98562.91;;;1.65;100.00
13734;BME280;43298;52.560;13.508;2024-01-16T12:38:16;98558.78;;;1.63;100.00
13734;BME280;43298;52.560;13.508;2024-01-16T12:40:49;98563.53;;;1.50;100.00
13734;BME280;43298;52.560;13.508;2024-01-16T12:43:20;98562.34;;;1.37;100.00
13734;BME280;43298;52.560;13.508;2024-01-16T12:45:55;98568.47;;;1.33;100.00
13734;BME280;43298;52.560;13.508;2024-01-16T12:48:25;98558.47;;;1.29;100.00
13734;BME280;43298;52.560;13.508;2024-01-16T12:50:58;98559.03;;;1.35;100.00